sensor_id;sensor_type;location;lat;lon;timestamp;P1;durP1;ratioP1;P2;durP2;ratioP2
55728;SDS011;41633;39.720;2.910;2023-04-01T00:00:37;17.10;;;5.13;;
55728;SDS011;41633;39.720;2.910;2023-04-01T00:03:08;14.35;;;4.70;;
55728;SDS011;41633;39.720;2.910;2023-04-01T00:05:36;16.80;;;4.95;;
55728;SDS011;41633;39.720;2.910;2023-04-01T00:08:03;15.07;;;5.88;;
55728;SDS011;41633;39.720;2.910;2023-04-01T00:10:32;17.23;;;7.00;;
55728;SDS011;41633;39.720;2.910;2023-04-01T00:13:00;16.08;;;5.40;;
55728;SDS011;41633;39.720;2.910;2023-04-01T00:15:28;14.25;;;5.35;;
55728;SDS011;41633;39.720;2.910;2023-04-01T00:17:56;15.93;;;5.20;;
55728;SDS011;41633;39.720;2.910;2023-04-01T00:20:24;17.05;;;5.60;;
55728;SDS011;41633;39.720;2.910;2023-04-01T00:22:52;16.00;;;5.32;;
55728;SDS011;41633;39.720;2.910;2023-04-01T00:25:20;16.25;;;5.43;;
55728;SDS011;41633;39.720;2.910;2023-04-01T00:27:49;17.73;;;5.32;;
55728;SDS011;41633;39.720;2.910;2023-04-01T00:30:16;16.33;;;5.40;;
55728;SDS011;41633;39.720;2.910;2023-04-01T00:32:45;18.15;;;5.07;;
55728;SDS011;41633;39.720;2.910;2023-04-01T00:35:13;15.63;;;5.72;;
55728;SDS011;41633;39.720;2.910;2023-04-01T00:40:08;18.35;;;5.55;;
55728;SDS011;41633;39.720;2.910;2023-04-01T00:42:48;18.27;;;5.85;;
55728;SDS011;41633;39.720;2.910;2023-04-01T00:48:01;16.75;;;5.82;;
55728;SDS011;41633;39.720;2.910;2023-04-01T00:50:33;19.45;;;6.20;;
55728;SDS011;41633;39.720;2.910;2023-04-01T00:53:11;18.90;;;5.72;;
55728;SDS011;41633;39.720;2.910;2023-04-01T00:55:40;20.95;;;6.13;;
55728;SDS011;41633;39.720;2.910;2023-04-01T00:58:18;19.52;;;6.15;;
55728;SDS011;41633;39.720;2.910;2023-04-01T01:00:50;17.58;;;6.15;;
55728;SDS011;41633;39.720;2.910;2023-04-01T01:03:18;18.35;;;6.00;;
55728;SDS011;41633;39.720;2.910;2023-04-01T01:10:58;17.95;;;5.35;;
55728;SDS011;41633;39.720;2.910;2023-04-01T01:13:32;18.73;;;6.20;;
55728;SDS011;41633;39.720;2.910;2023-04-01T01:16:04;19.73;;;5.85;;
55728;SDS011;41633;39.720;2.910;2023-04-01T01:18:49;20.73;;;6.78;;
55728;SDS011;41633;39.720;2.910;2023-04-01T01:21:42;15.70;;;5.40;;
55728;SDS011;41633;39.720;2.910;2023-04-01T01:26:50;23.15;;;6.50;;
55728;SDS011;41633;39.720;2.910;2023-04-01T01:37:20;17.27;;;6.22;;
55728;SDS011;41633;39.720;2.910;2023-04-01T01:39:51;19.20;;;6.72;;
55728;SDS011;41633;39.720;2.910;2023-04-01T01:42:18;20.42;;;6.75;;
55728;SDS011;41633;39.720;2.910;2023-04-01T01:44:48;18.13;;;6.30;;
55728;SDS011;41633;39.720;2.910;2023-04-01T01:47:18;17.83;;;6.53;;
55728;SDS011;41633;39.720;2.910;2023-04-01T01:49:48;21.00;;;7.18;;
55728;SDS011;41633;39.720;2.910;2023-04-01T01:52:17;16.05;;;6.10;;
55728;SDS011;41633;39.720;2.910;2023-04-01T01:54:49;20.25;;;6.30;;
55728;SDS011;41633;39.720;2.910;2023-04-01T01:57:20;18.27;;;6.47;;
55728;SDS011;41633;39.720;2.910;2023-04-01T01:59:46;19.77;;;6.60;;
55728;SDS011;41633;39.720;2.910;2023-04-01T02:02:16;27.80;;;8.15;;
55728;SDS011;41633;39.720;2.910;2023-04-01T02:04:44;20.13;;;7.15;;
55728;SDS011;41633;39.720;2.910;2023-04-01T02:07:20;18.30;;;6.55;;
55728;SDS011;41633;39.720;2.910;2023-04-01T02:09:50;17.85;;;6.40;;
55728;SDS011;41633;39.720;2.910;2023-04-01T02:12:17;21.90;;;6.95;;
55728;SDS011;41633;39.720;2.910;2023-04-01T02:17:45;22.83;;;6.72;;
55728;SDS011;41633;39.720;2.910;2023-04-01T02:20:13;18.77;;;7.03;;
55728;SDS011;41633;39.720;2.910;2023-04-01T02:22:43;19.65;;;7.43;;
55728;SDS011;41633;39.720;2.910;2023-04-01T02:25:13;16.58;;;6.63;;
55728;SDS011;41633;39.720;2.910;2023-04-01T02:27:41;19.92;;;7.28;;
55728;SDS011;41633;39.720;2.910;2023-04-01T02:30:08;20.23;;;6.60;;
55728;SDS011;41633;39.720;2.910;2023-04-01T02:32:37;19.13;;;7.13;;
55728;SDS011;41633;39.720;2.910;2023-04-01T02:35:07;16.80;;;6.60;;
55728;SDS011;41633;39.720;2.910;2023-04-01T02:37:35;25.85;;;6.95;;
55728;SDS011;41633;39.720;2.910;2023-04-01T02:40:05;23.98;;;7.65;;
55728;SDS011;41633;39.720;2.910;2023-04-01T02:42:32;19.98;;;6.63;;
55728;SDS011;41633;39.720;2.910;2023-04-01T02:45:02;19.75;;;7.25;;
55728;SDS011;41633;39.720;2.910;2023-04-01T02:47:34;23.85;;;7.10;;
55728;SDS011;41633;39.720;2.910;2023-04-01T02:50:05;19.08;;;7.25;;
55728;SDS011;41633;39.720;2.910;2023-04-01T02:52:33;19.88;;;6.97;;
55728;SDS011;41633;39.720;2.910;2023-04-01T02:55:00;18.40;;;6.45;;
55728;SDS011;41633;39.720;2.910;2023-04-01T02:57:29;20.27;;;7.28;;
55728;SDS011;41633;39.720;2.910;2023-04-01T02:59:58;20.27;;;7.13;;
55728;SDS011;41633;39.720;2.910;2023-04-01T03:02:26;19.23;;;6.95;;
55728;SDS011;41633;39.720;2.910;2023-04-01T03:04:55;20.63;;;7.43;;
55728;SDS011;41633;39.720;2.910;2023-04-01T03:07:26;18.73;;;7.65;;
55728;SDS011;41633;39.720;2.910;2023-04-01T03:09:53;21.42;;;7.38;;
55728;SDS011;41633;39.720;2.910;2023-04-01T03:12:22;18.10;;;6.63;;
55728;SDS011;41633;39.720;2.910;2023-04-01T03:14:49;17.63;;;6.65;;
55728;SDS011;41633;39.720;2.910;2023-04-01T03:17:16;21.75;;;7.45;;
55728;SDS011;41633;39.720;2.910;2023-04-01T03:19:45;21.50;;;7.03;;
55728;SDS011;41633;39.720;2.910;2023-04-01T03:22:14;24.60;;;7.40;;
55728;SDS011;41633;39.720;2.910;2023-04-01T03:24:40;20.45;;;6.93;;
55728;SDS011;41633;39.720;2.910;2023-04-01T03:29:34;17.15;;;5.95;;
55728;SDS011;41633;39.720;2.910;2023-04-01T03:32:01;20.45;;;6.05;;
55728;SDS011;41633;39.720;2.910;2023-04-01T03:34:30;20.58;;;7.22;;
55728;SDS011;41633;39.720;2.910;2023-04-01T03:36:59;19.20;;;6.80;;
55728;SDS011;41633;39.720;2.910;2023-04-01T03:39:26;17.85;;;6.40;;
55728;SDS011;41633;39.720;2.910;2023-04-01T03:41:53;18.35;;;6.40;;
55728;SDS011;41633;39.720;2.910;2023-04-01T03:44:20;17.63;;;6.40;;
55728;SDS011;41633;39.720;2.910;2023-04-01T03:46:48;22.88;;;7.35;;
55728;SDS011;41633;39.720;2.910;2023-04-01T03:49:15;20.20;;;7.13;;
55728;SDS011;41633;39.720;2.910;2023-04-01T03:51:42;22.67;;;6.80;;
55728;SDS011;41633;39.720;2.910;2023-04-01T03:54:10;19.77;;;6.63;;
55728;SDS011;41633;39.720;2.910;2023-04-01T03:56:38;17.88;;;6.60;;
55728;SDS011;41633;39.720;2.910;2023-04-01T03:59:07;20.83;;;6.90;;
55728;SDS011;41633;39.720;2.910;2023-04-01T04:01:34;21.25;;;6.93;;
55728;SDS011;41633;39.720;2.910;2023-04-01T04:04:02;21.83;;;7.75;;
55728;SDS011;41633;39.720;2.910;2023-04-01T04:06:32;21.95;;;7.38;;
55728;SDS011;41633;39.720;2.910;2023-04-01T04:08:59;19.25;;;6.43;;
55728;SDS011;41633;39.720;2.910;2023-04-01T04:11:27;20.30;;;6.63;;
55728;SDS011;41633;39.720;2.910;2023-04-01T04:13:56;21.88;;;6.82;;
55728;SDS011;41633;39.720;2.910;2023-04-01T04:16:24;22.98;;;6.15;;
55728;SDS011;41633;39.720;2.910;2023-04-01T04:18:51;20.90;;;6.70;;
55728;SDS011;41633;39.720;2.910;2023-04-01T04:21:17;15.48;;;5.82;;
55728;SDS011;41633;39.720;2.910;2023-04-01T04:26:12;19.50;;;6.35;;
55728;SDS011;41633;39.720;2.910;2023-04-01T04:28:40;18.13;;;6.72;;
55728;SDS011;41633;39.720;2.910;2023-04-01T04:31:11;18.65;;;7.15;;
55728;SDS011;41633;39.720;2.910;2023-04-01T04:33:39;18.95;;;6.93;;
55728;SDS011;41633;39.720;2.910;2023-04-01T04:36:07;20.00;;;7.45;;
55728;SDS011;41633;39.720;2.910;2023-04-01T04:38:34;22.92;;;7.28;;
55728;SDS011;41633;39.720;2.910;2023-04-01T04:41:03;22.35;;;7.90;;
55728;SDS011;41633;39.720;2.910;2023-04-01T04:43:36;22.27;;;7.93;;
55728;SDS011;41633;39.720;2.910;2023-04-01T04:46:10;21.02;;;7.22;;
55728;SDS011;41633;39.720;2.910;2023-04-01T04:48:38;21.13;;;7.18;;
55728;SDS011;41633;39.720;2.910;2023-04-01T04:51:05;21.80;;;6.70;;
55728;SDS011;41633;39.720;2.910;2023-04-01T04:53:33;17.25;;;6.75;;
55728;SDS011;41633;39.720;2.910;2023-04-01T04:56:00;20.08;;;7.25;;
55728;SDS011;41633;39.720;2.910;2023-04-01T04:58:28;20.50;;;7.10;;
55728;SDS011;41633;39.720;2.910;2023-04-01T05:00:57;18.60;;;6.20;;
55728;SDS011;41633;39.720;2.910;2023-04-01T05:03:23;17.75;;;6.35;;
55728;SDS011;41633;39.720;2.910;2023-04-01T05:05:52;21.05;;;7.03;;
55728;SDS011;41633;39.720;2.910;2023-04-01T05:08:20;22.95;;;7.00;;
55728;SDS011;41633;39.720;2.910;2023-04-01T05:10:48;22.27;;;7.53;;
55728;SDS011;41633;39.720;2.910;2023-04-01T05:13:15;21.20;;;7.60;;
55728;SDS011;41633;39.720;2.910;2023-04-01T05:15:43;20.17;;;7.50;;
55728;SDS011;41633;39.720;2.910;2023-04-01T05:18:09;20.05;;;7.15;;
55728;SDS011;41633;39.720;2.910;2023-04-01T05:20:38;18.48;;;6.95;;
55728;SDS011;41633;39.720;2.910;2023-04-01T05:23:07;24.00;;;7.05;;
55728;SDS011;41633;39.720;2.910;2023-04-01T05:25:37;20.70;;;6.53;;
55728;SDS011;41633;39.720;2.910;2023-04-01T05:28:04;23.45;;;7.53;;
55728;SDS011;41633;39.720;2.910;2023-04-01T05:30:33;21.85;;;7.40;;
55728;SDS011;41633;39.720;2.910;2023-04-01T05:33:00;21.98;;;8.10;;
55728;SDS011;41633;39.720;2.910;2023-04-01T05:35:29;21.02;;;7.40;;
55728;SDS011;41633;39.720;2.910;2023-04-01T05:37:56;25.00;;;7.75;;
55728;SDS011;41633;39.720;2.910;2023-04-01T05:40:25;23.25;;;8.27;;
55728;SDS011;41633;39.720;2.910;2023-04-01T05:42:53;23.23;;;8.48;;
55728;SDS011;41633;39.720;2.910;2023-04-01T05:45:20;28.55;;;11.00;;
55728;SDS011;41633;39.720;2.910;2023-04-01T05:47:48;22.13;;;10.07;;
55728;SDS011;41633;39.720;2.910;2023-04-01T05:50:16;22.45;;;11.57;;
55728;SDS011;41633;39.720;2.910;2023-04-01T05:52:43;30.80;;;13.07;;
55728;SDS011;41633;39.720;2.910;2023-04-01T05:55:12;30.75;;;12.25;;
55728;SDS011;41633;39.720;2.910;2023-04-01T05:57:38;30.83;;;12.02;;
55728;SDS011;41633;39.720;2.910;2023-04-01T06:00:06;28.23;;;11.80;;
55728;SDS011;41633;39.720;2.910;2023-04-01T06:02:33;26.05;;;10.48;;
55728;SDS011;41633;39.720;2.910;2023-04-01T06:05:26;24.02;;;9.68;;
55728;SDS011;41633;39.720;2.910;2023-04-01T06:07:54;24.15;;;9.32;;
55728;SDS011;41633;39.720;2.910;2023-04-01T06:10:43;27.33;;;9.63;;
55728;SDS011;41633;39.720;2.910;2023-04-01T06:13:16;23.17;;;8.52;;
55728;SDS011;41633;39.720;2.910;2023-04-01T06:43:33;27.15;;;9.18;;
55728;SDS011;41633;39.720;2.910;2023-04-01T06:46:09;26.17;;;8.13;;
55728;SDS011;41633;39.720;2.910;2023-04-01T06:54:31;22.30;;;7.47;;
55728;SDS011;41633;39.720;2.910;2023-04-01T06:57:00;20.80;;;8.15;;
55728;SDS011;41633;39.720;2.910;2023-04-01T06:59:30;24.45;;;8.13;;
55728;SDS011;41633;39.720;2.910;2023-04-01T07:04:44;22.58;;;8.02;;
55728;SDS011;41633;39.720;2.910;2023-04-01T07:09:48;26.25;;;9.20;;
55728;SDS011;41633;39.720;2.910;2023-04-01T07:12:41;26.42;;;10.80;;
55728;SDS011;41633;39.720;2.910;2023-04-01T07:15:25;28.20;;;9.98;;
55728;SDS011;41633;39.720;2.910;2023-04-01T07:18:05;24.08;;;9.27;;
55728;SDS011;41633;39.720;2.910;2023-04-01T07:20:38;32.60;;;9.52;;
55728;SDS011;41633;39.720;2.910;2023-04-01T07:26:00;25.33;;;7.60;;
55728;SDS011;41633;39.720;2.910;2023-04-01T07:28:30;25.10;;;6.68;;
55728;SDS011;41633;39.720;2.910;2023-04-01T07:50:21;18.33;;;5.47;;
55728;SDS011;41633;39.720;2.910;2023-04-01T07:53:36;25.40;;;5.53;;
55728;SDS011;41633;39.720;2.910;2023-04-01T08:00:53;23.77;;;6.13;;
55728;SDS011;41633;39.720;2.910;2023-04-01T08:06:23;23.65;;;7.72;;
55728;SDS011;41633;39.720;2.910;2023-04-01T08:17:15;26.60;;;9.38;;
55728;SDS011;41633;39.720;2.910;2023-04-01T08:25:24;24.55;;;9.43;;
55728;SDS011;41633;39.720;2.910;2023-04-01T08:27:59;23.73;;;7.78;;
55728;SDS011;41633;39.720;2.910;2023-04-01T08:33:24;21.70;;;6.97;;
55728;SDS011;41633;39.720;2.910;2023-04-01T08:36:09;25.35;;;7.25;;
55728;SDS011;41633;39.720;2.910;2023-04-01T08:39:10;22.15;;;7.10;;
55728;SDS011;41633;39.720;2.910;2023-04-01T08:41:36;20.85;;;6.20;;
55728;SDS011;41633;39.720;2.910;2023-04-01T08:50:09;23.10;;;7.85;;
55728;SDS011;41633;39.720;2.910;2023-04-01T09:00:57;27.38;;;8.70;;
55728;SDS011;41633;39.720;2.910;2023-04-01T09:14:40;20.02;;;7.30;;
55728;SDS011;41633;39.720;2.910;2023-04-01T09:44:54;17.95;;;6.18;;
55728;SDS011;41633;39.720;2.910;2023-04-01T09:52:58;17.65;;;5.95;;
55728;SDS011;41633;39.720;2.910;2023-04-01T09:55:44;17.35;;;5.18;;
55728;SDS011;41633;39.720;2.910;2023-04-01T10:03:47;19.25;;;6.45;;
55728;SDS011;41633;39.720;2.910;2023-04-01T10:28:08;17.35;;;5.38;;
55728;SDS011;41633;39.720;2.910;2023-04-01T10:36:38;18.63;;;5.47;;
55728;SDS011;41633;39.720;2.910;2023-04-01T10:58:14;13.50;;;5.30;;
55728;SDS011;41633;39.720;2.910;2023-04-01T11:17:25;14.18;;;5.50;;
55728;SDS011;41633;39.720;2.910;2023-04-01T11:39:15;18.88;;;6.70;;
55728;SDS011;41633;39.720;2.910;2023-04-01T11:47:13;20.52;;;5.25;;
55728;SDS011;41633;39.720;2.910;2023-04-01T12:14:09;13.40;;;5.13;;
55728;SDS011;41633;39.720;2.910;2023-04-01T12:17:01;14.23;;;4.65;;
55728;SDS011;41633;39.720;2.910;2023-04-01T12:19:40;17.08;;;4.90;;
55728;SDS011;41633;39.720;2.910;2023-04-01T12:24:46;14.20;;;5.13;;
55728;SDS011;41633;39.720;2.910;2023-04-01T12:27:26;17.88;;;5.22;;
55728;SDS011;41633;39.720;2.910;2023-04-01T13:12:00;15.57;;;4.72;;
55728;SDS011;41633;39.720;2.910;2023-04-01T13:28:23;14.20;;;4.53;;
55728;SDS011;41633;39.720;2.910;2023-04-01T13:34:00;11.25;;;4.20;;
55728;SDS011;41633;39.720;2.910;2023-04-01T13:36:44;13.30;;;3.88;;
55728;SDS011;41633;39.720;2.910;2023-04-01T14:31:21;15.48;;;3.78;;
55728;SDS011;41633;39.720;2.910;2023-04-01T14:34:09;15.45;;;4.13;;
55728;SDS011;41633;39.720;2.910;2023-04-01T14:42:29;13.07;;;4.35;;
55728;SDS011;41633;39.720;2.910;2023-04-01T14:50:44;10.43;;;3.30;;
55728;SDS011;41633;39.720;2.910;2023-04-01T14:53:36;10.82;;;3.63;;
55728;SDS011;41633;39.720;2.910;2023-04-01T14:56:02;11.52;;;3.47;;
55728;SDS011;41633;39.720;2.910;2023-04-01T14:58:49;10.35;;;3.38;;
55728;SDS011;41633;39.720;2.910;2023-04-01T15:12:46;13.37;;;3.53;;
55728;SDS011;41633;39.720;2.910;2023-04-01T15:22:15;10.48;;;3.53;;
55728;SDS011;41633;39.720;2.910;2023-04-01T15:24:15;11.65;;;3.50;;
55728;SDS011;41633;39.720;2.910;2023-04-01T15:26:59;14.52;;;3.90;;
55728;SDS011;41633;39.720;2.910;2023-04-01T15:35:19;9.55;;;3.33;;
55728;SDS011;41633;39.720;2.910;2023-04-01T15:40:22;13.10;;;3.88;;
55728;SDS011;41633;39.720;2.910;2023-04-01T16:02:43;11.75;;;3.17;;
55728;SDS011;41633;39.720;2.910;2023-04-01T16:10:44;12.38;;;3.22;;
55728;SDS011;41633;39.720;2.910;2023-04-01T16:13:22;10.93;;;3.05;;
55728;SDS011;41633;39.720;2.910;2023-04-01T16:15:56;8.25;;;2.50;;
55728;SDS011;41633;39.720;2.910;2023-04-01T16:21:04;11.25;;;2.80;;
55728;SDS011;41633;39.720;2.910;2023-04-01T16:34:35;11.50;;;3.55;;
55728;SDS011;41633;39.720;2.910;2023-04-01T16:43:04;13.85;;;3.30;;
55728;SDS011;41633;39.720;2.910;2023-04-01T16:48:20;12.98;;;3.60;;
55728;SDS011;41633;39.720;2.910;2023-04-01T16:51:09;13.00;;;3.60;;
55728;SDS011;41633;39.720;2.910;2023-04-01T16:53:48;14.00;;;4.82;;
55728;SDS011;41633;39.720;2.910;2023-04-01T16:56:24;16.23;;;5.07;;
55728;SDS011;41633;39.720;2.910;2023-04-01T16:59:12;16.10;;;4.88;;
55728;SDS011;41633;39.720;2.910;2023-04-01T17:01:43;17.98;;;5.20;;
55728;SDS011;41633;39.720;2.910;2023-04-01T17:15:39;21.08;;;5.75;;
55728;SDS011;41633;39.720;2.910;2023-04-01T17:18:29;21.95;;;5.63;;
55728;SDS011;41633;39.720;2.910;2023-04-01T17:24:00;21.50;;;6.93;;
55728;SDS011;41633;39.720;2.910;2023-04-01T17:29:22;21.50;;;7.78;;
55728;SDS011;41633;39.720;2.910;2023-04-01T17:37:45;22.00;;;6.20;;
55728;SDS011;41633;39.720;2.910;2023-04-01T17:45:55;18.60;;;6.03;;
55728;SDS011;41633;39.720;2.910;2023-04-01T17:56:44;19.20;;;5.72;;
55728;SDS011;41633;39.720;2.910;2023-04-01T18:08:08;21.88;;;6.45;;
55728;SDS011;41633;39.720;2.910;2023-04-01T18:11:00;19.30;;;6.20;;
55728;SDS011;41633;39.720;2.910;2023-04-01T18:21:52;21.73;;;6.13;;
55728;SDS011;41633;39.720;2.910;2023-04-01T18:27:24;21.88;;;7.20;;
55728;SDS011;41633;39.720;2.910;2023-04-01T18:29:58;20.13;;;6.72;;
55728;SDS011;41633;39.720;2.910;2023-04-01T18:35:12;21.45;;;6.10;;
55728;SDS011;41633;39.720;2.910;2023-04-01T18:37:49;19.15;;;6.00;;
55728;SDS011;41633;39.720;2.910;2023-04-01T18:40:36;22.42;;;6.65;;
55728;SDS011;41633;39.720;2.910;2023-04-01T18:45:57;22.48;;;6.38;;
55728;SDS011;41633;39.720;2.910;2023-04-01T18:54:00;20.95;;;6.40;;
55728;SDS011;41633;39.720;2.910;2023-04-01T18:56:34;22.58;;;6.75;;
55728;SDS011;41633;39.720;2.910;2023-04-01T19:04:37;24.60;;;7.70;;
55728;SDS011;41633;39.720;2.910;2023-04-01T19:09:49;26.00;;;7.20;;
55728;SDS011;41633;39.720;2.910;2023-04-01T19:13:02;26.98;;;7.03;;
55728;SDS011;41633;39.720;2.910;2023-04-01T19:15:35;24.95;;;7.13;;
55728;SDS011;41633;39.720;2.910;2023-04-01T19:29:24;19.73;;;7.28;;
55728;SDS011;41633;39.720;2.910;2023-04-01T19:32:14;24.92;;;7.85;;
55728;SDS011;41633;39.720;2.910;2023-04-01T19:45:23;23.90;;;7.28;;
55728;SDS011;41633;39.720;2.910;2023-04-01T19:48:11;24.77;;;7.60;;
55728;SDS011;41633;39.720;2.910;2023-04-01T19:50:57;28.23;;;8.23;;
55728;SDS011;41633;39.720;2.910;2023-04-01T19:56:12;26.83;;;7.57;;
55728;SDS011;41633;39.720;2.910;2023-04-01T19:59:01;27.58;;;8.23;;
55728;SDS011;41633;39.720;2.910;2023-04-01T20:01:35;25.33;;;8.18;;
55728;SDS011;41633;39.720;2.910;2023-04-01T20:04:49;24.38;;;8.25;;
55728;SDS011;41633;39.720;2.910;2023-04-01T20:07:07;27.15;;;8.30;;
55728;SDS011;41633;39.720;2.910;2023-04-01T20:14:58;24.92;;;7.90;;
55728;SDS011;41633;39.720;2.910;2023-04-01T20:17:43;23.05;;;8.43;;
55728;SDS011;41633;39.720;2.910;2023-04-01T20:20:23;27.15;;;8.15;;
55728;SDS011;41633;39.720;2.910;2023-04-01T20:23:01;27.05;;;8.07;;
55728;SDS011;41633;39.720;2.910;2023-04-01T20:25:38;24.38;;;8.10;;
55728;SDS011;41633;39.720;2.910;2023-04-01T20:28:20;26.10;;;8.35;;
55728;SDS011;41633;39.720;2.910;2023-04-01T20:41:58;27.63;;;7.95;;
55728;SDS011;41633;39.720;2.910;2023-04-01T20:50:23;33.25;;;8.90;;
55728;SDS011;41633;39.720;2.910;2023-04-01T21:17:41;23.75;;;8.13;;
55728;SDS011;41633;39.720;2.910;2023-04-01T21:36:52;22.35;;;7.50;;
55728;SDS011;41633;39.720;2.910;2023-04-01T21:42:17;24.17;;;8.30;;
55728;SDS011;41633;39.720;2.910;2023-04-01T21:44:57;24.60;;;8.18;;
55728;SDS011;41633;39.720;2.910;2023-04-01T22:06:40;11.85;;;4.07;;
55728;SDS011;41633;39.720;2.910;2023-04-01T22:12:40;12.30;;;3.43;;
55728;SDS011;41633;39.720;2.910;2023-04-01T22:23:45;6.05;;;1.70;;
55728;SDS011;41633;39.720;2.910;2023-04-01T22:32:04;6.47;;;1.95;;
55728;SDS011;41633;39.720;2.910;2023-04-01T22:37:05;5.03;;;1.50;;
55728;SDS011;41633;39.720;2.910;2023-04-01T22:50:29;5.78;;;1.45;;
55728;SDS011;41633;39.720;2.910;2023-04-01T22:53:25;4.00;;;1.02;;
55728;SDS011;41633;39.720;2.910;2023-04-01T22:55:57;5.78;;;1.30;;
55728;SDS011;41633;39.720;2.910;2023-04-01T22:58:46;5.22;;;1.50;;
55728;SDS011;41633;39.720;2.910;2023-04-01T23:01:15;5.65;;;1.23;;
55728;SDS011;41633;39.720;2.910;2023-04-01T23:03:45;5.97;;;1.30;;
55728;SDS011;41633;39.720;2.910;2023-04-01T23:06:22;5.03;;;1.20;;
55728;SDS011;41633;39.720;2.910;2023-04-01T23:16:45;6.13;;;1.30;;
55728;SDS011;41633;39.720;2.910;2023-04-01T23:19:18;5.03;;;1.40;;
55728;SDS011;41633;39.720;2.910;2023-04-01T23:24:38;4.90;;;1.20;;
55728;SDS011;41633;39.720;2.910;2023-04-01T23:27:15;4.90;;;1.23;;
55728;SDS011;41633;39.720;2.910;2023-04-01T23:29:43;5.03;;;1.40;;
55728;SDS011;41633;39.720;2.910;2023-04-01T23:32:22;5.90;;;1.70;;
55728;SDS011;41633;39.720;2.910;2023-04-01T23:35:11;6.93;;;1.70;;
55728;SDS011;41633;39.720;2.910;2023-04-01T23:37:44;6.65;;;1.70;;
55728;SDS011;41633;39.720;2.910;2023-04-01T23:40:12;7.53;;;1.98;;
55728;SDS011;41633;39.720;2.910;2023-04-01T23:42:40;7.60;;;2.10;;
55728;SDS011;41633;39.720;2.910;2023-04-01T23:45:15;5.28;;;1.80;;
55728;SDS011;41633;39.720;2.910;2023-04-01T23:47:44;8.68;;;1.90;;
55728;SDS011;41633;39.720;2.910;2023-04-01T23:50:18;7.00;;;1.80;;
55728;SDS011;41633;39.720;2.910;2023-04-01T23:52:48;8.57;;;2.70;;
55728;SDS011;41633;39.720;2.910;2023-04-01T23:55:22;7.65;;;2.08;;
